Latest Weather Observations for Port Augusta

IDS60801

Issued at 3:41 pm CST Tuesday 20 April 2021 (issued every 10 minutes, with the page automatically refreshed every 10 minutes)

About weather observations | Map of weather stations | Latest weather observations for SA | Other Formats
Station Details ID: 018201 Name: PORT AUGUSTA AERO Lat: -32.51 Lon: 137.72 Height: 13.97 m
Data from the previous 72 hours. | See also: Recent months at Port Augusta
Date/Time
CST
Temp
°C
App
Temp
°C
Dew
Point
°C
Rel
Hum
%
Delta-T
°C
Wind Press
QNH
hPa
Press
MSL
hPa
Rain since
9am
mm
Dir  Spd
km/h
Gust
km/h
Spd
kts
Gust
kts
20/03:30pm 20.6 13.5 11.0 54 5.3 S 39 50 21 27 1015.8 1015.7 0.0
20/03:00pm 21.4 14.5 11.7 54 5.4 S 39 48 21 26 1015.4 1015.3 0.0
20/02:50pm 21.5 14.7 11.8 54 5.4 S 39 50 21 27 1015.3 1015.2 0.0
20/02:30pm 21.4 15.8 11.4 53 5.5 SSE 32 56 17 30 1014.9 1014.8 0.0
20/02:28pm 21.8 16.9 11.2 51 5.9 S 28 48 15 26 1014.9 1014.8 0.0
20/02:00pm 24.2 18.9 5.1 29 9.6 SW 22 33 12 18 1015.0 1014.9 0.0
20/01:30pm 24.1 19.5 6.4 32 9.1 SSW 20 32 11 17 1015.2 1015.1 0.0
20/01:00pm 24.2 19.6 6.5 32 9.1 SW 20 30 11 16 1015.6 1015.5 0.0
20/12:30pm 23.6 19.1 6.8 34 8.7 SW 20 32 11 17 1016.0 1015.9 0.0
20/12:00pm 23.1 18.6 6.8 35 8.4 W 20 28 11 15 1016.4 1016.3 0.0
20/11:30am 23.3 18.2 6.1 33 8.7 WSW 22 32 12 17 1016.7 1016.6 0.0
20/11:00am 22.6 18.1 6.8 36 8.1 W 20 30 11 16 1017.0 1016.9 0.0
20/10:30am 22.0 17.0 6.3 36 7.9 WNW 22 30 12 16 1017.2 1017.1 0.0
20/10:00am 20.5 17.1 5.7 38 7.3 NW 13 19 7 10 1017.0 1016.9 0.0
20/09:30am 19.2 15.9 4.6 38 7.0 NNW 11 15 6 8 1017.4 1017.3 0.0
20/09:00am 17.6 15.1 4.6 42 6.2 NW 7 11 4 6 1017.5 1017.4 0.0
20/08:30am 15.5 12.5 3.9 46 5.3 NNW 9 13 5 7 1017.4 1017.3 0.0
20/08:00am 14.8 12.6 5.1 52 4.6 WSW 6 7 3 4 1017.0 1016.9 0.0
20/07:30am 10.1 6.5 2.7 60 3.2 WSW 11 11 6 6 1016.7 1016.6 0.0
20/07:00am 9.9 7.0 2.5 60 3.1 WSW 7 9 4 5 1016.1 1016.0 0.0
20/06:30am 9.2 5.9 2.3 62 2.9 WNW 9 13 5 7 1015.8 1015.7 0.0
20/06:00am 8.1 4.7 1.7 64 2.6 NW 9 11 5 6 1015.5 1015.4 0.0
20/05:30am 7.8 4.3 1.0 62 2.7 NW 9 11 5 6 1015.4 1015.3 0.0
20/05:00am 7.5 3.6 1.1 64 2.6 NNW 11 13 6 7 1015.2 1015.1 0.0
20/04:30am 7.9 4.3 0.9 61 2.8 NNW 9 11 5 6 1015.3 1015.2 0.0
20/04:00am 8.4 5.3 1.6 62 2.8 NNE 7 7 4 4 1015.5 1015.4 0.0
20/03:30am 9.7 7.0 2.6 61 3.0 SW 6 7 3 4 1015.6 1015.5 0.0
20/03:00am 9.8 6.9 1.5 56 3.4 SW 6 7 3 4 1015.9 1015.8 0.0
20/02:30am 12.1 9.5 3.3 55 3.9 SW 6 9 3 5 1016.0 1015.9 0.0
20/02:00am 12.9 9.4 3.3 52 4.3 SW 11 13 6 7 1016.1 1016.0 0.0
20/01:30am 13.4 10.9 3.8 52 4.3 SW 6 7 3 4 1016.3 1016.2 0.0
20/01:00am 13.4 9.8 3.2 50 4.6 SW 11 15 6 8 1016.1 1016.0 0.0
20/12:30am 15.1 10.9 3.6 46 5.2 WSW 15 19 8 10 1016.2 1016.1 0.0
20/12:00am 15.6 11.0 3.7 45 5.5 WSW 17 20 9 11 1016.3 1016.2 0.0
 
Date/Time
CST
Temp
°C
App
Temp
°C
Dew
Point
°C
Rel
Hum
%
Delta-T
°C
Wind Press
QNH
hPa
Press
MSL
hPa
Rain since
9am
mm
Dir  Spd
km/h
Gust
km/h
Spd
kts
Gust
kts
19/11:30pm 13.8 9.6 1.8 44 5.2 SW 13 32 7 17 1016.3 1016.2 0.0
19/11:00pm 12.7 9.8 1.4 46 4.8 N 6 7 3 4 1016.0 1015.9 0.0
19/10:30pm 13.6 11.9 1.6 44 5.2 CALM 0 0 0 0 1016.0 1015.9 0.0
19/10:00pm 13.7 12.0 1.7 44 5.2 CALM 0 0 0 0 1015.9 1015.8 0.0
19/09:30pm 14.1 9.9 1.7 43 5.4 NW 13 13 7 7 1016.0 1015.9 0.0
19/09:00pm 14.5 9.9 1.8 42 5.5 NW 15 17 8 9 1016.0 1015.9 0.0
19/08:30pm 14.5 10.3 1.4 41 5.7 WNW 13 15 7 8 1016.0 1015.9 0.0
19/08:00pm 16.0 11.4 1.7 38 6.3 NNW 15 17 8 9 1016.0 1015.9 0.0
19/07:30pm 17.9 14.5 1.8 34 7.2 NNW 9 11 5 6 1015.9 1015.8 0.0
19/07:00pm 17.9 13.7 1.8 34 7.2 NNW 13 15 7 8 1015.8 1015.7 0.0
19/06:30pm 19.0 14.5 2.0 32 7.7 NNW 15 17 8 9 1015.7 1015.6 0.0
19/06:00pm 21.0 16.2 2.8 30 8.6 NW 17 20 9 11 1015.6 1015.5 0.0
19/05:30pm 22.5 17.9 3.6 29 9.1 NW 17 22 9 12 1015.3 1015.2 0.0
19/05:00pm 23.6 19.0 3.5 27 9.8 WNW 17 22 9 12 1015.3 1015.2 0.0
19/04:30pm 24.2 19.1 4.0 27 9.9 WNW 20 30 11 16 1015.3 1015.2 0.0
19/04:00pm 24.6 19.6 3.8 26 10.2 NW 19 30 10 16 1015.4 1015.3 0.0
19/03:30pm 24.6 20.8 3.8 26 10.2 NW 13 24 7 13 1015.5 1015.4 0.0
19/03:00pm 24.5 19.6 4.3 27 10.0 NW 19 32 10 17 1015.8 1015.7 0.0
19/02:30pm 24.4 20.7 4.7 28 9.8 NNW 13 30 7 16 1016.1 1016.0 0.0
19/02:00pm 24.0 19.6 4.9 29 9.6 NNW 17 30 9 16 1016.4 1016.3 0.0
19/01:30pm 24.1 20.9 5.0 29 9.6 NNW 11 24 6 13 1016.9 1016.8 0.0
19/01:00pm 23.3 19.4 5.2 31 9.1 NNW 15 28 8 15 1017.6 1017.5 0.0
19/12:30pm 23.1 18.8 5.1 31 9.0 WNW 17 28 9 15 1018.2 1018.1 0.0
19/12:00pm 22.6 18.7 5.5 33 8.6 NNW 15 24 8 13 1018.9 1018.8 0.0
19/11:30am 21.6 17.7 5.5 35 8.0 NNW 15 24 8 13 1019.3 1019.2 0.0
19/11:00am 21.8 18.4 5.7 35 8.1 NNW 13 26 7 14 1019.7 1019.6 0.0
19/10:30am 21.0 17.7 6.2 38 7.4 NNW 13 20 7 11 1020.2 1020.1 0.0
19/10:00am 19.8 17.1 7.2 44 6.4 N 11 15 6 8 1020.5 1020.4 0.0
19/09:30am 18.3 16.4 6.5 46 5.8 NNW 6 11 3 6 1020.8 1020.7 0.0
19/09:00am 17.0 15.2 7.1 52 4.9 NNW 6 9 3 5 1020.9 1020.8 0.0
19/08:30am 15.5 14.4 7.0 57 4.2 N 2 9 1 5 1021.0 1020.9 0.0
19/08:00am 12.5 11.8 7.0 69 2.6 CALM 0 0 0 0 1020.9 1020.8 0.0
19/07:30am 8.7 7.5 4.7 76 1.8 CALM 0 6 0 3 1020.7 1020.6 0.0
19/07:00am 6.2 3.4 3.2 81 1.3 SW 7 11 4 6 1020.6 1020.5 0.0
19/06:30am 6.0 4.2 3.2 82 1.2 SW 2 7 1 4 1020.4 1020.3 0.0
19/06:00am 6.5 5.0 2.9 78 1.5 CALM 0 0 0 0 1020.3 1020.2 0.0
19/05:30am 7.4 5.0 4.2 80 1.4 SW 6 7 3 4 1020.4 1020.3 0.0
19/05:00am 7.5 4.9 4.3 80 1.4 SW 7 7 4 4 1020.5 1020.4 0.0
19/04:30am 6.7 4.1 3.3 79 1.4 SW 6 11 3 6 1020.5 1020.4 0.0
19/04:00am 7.7 6.4 4.1 78 1.6 CALM 0 0 0 0 1020.6 1020.5 0.0
19/03:30am 8.0 6.8 4.8 80 1.4 CALM 0 0 0 0 1020.6 1020.5 0.0
19/03:00am 8.3 7.1 4.5 77 1.7 CALM 0 0 0 0 1020.8 1020.7 0.0
19/02:30am 9.0 6.8 5.4 78 1.6 SW 6 7 3 4 1021.1 1021.0 0.0
19/02:00am 8.4 5.9 4.8 78 1.6 SW 7 9 4 5 1021.2 1021.1 0.0
19/01:30am 9.3 8.4 6.0 80 1.5 CALM 0 0 0 0 1021.5 1021.4 0.0
19/01:00am 9.8 7.5 5.8 76 1.8 SW 7 9 4 5 1021.8 1021.7 0.0
19/12:30am 10.0 7.3 5.8 75 1.9 SW 9 13 5 7 1021.9 1021.8 0.0
19/12:00am 11.9 11.2 7.0 72 2.3 CALM 0 0 0 0 1021.9 1021.8 0.0
 
Date/Time
CST
Temp
°C
App
Temp
°C
Dew
Point
°C
Rel
Hum
%
Delta-T
°C
Wind Press
QNH
hPa
Press
MSL
hPa
Rain since
9am
mm
Dir  Spd
km/h
Gust
km/h
Spd
kts
Gust
kts
18/11:30pm 11.6 10.9 7.1 74 2.1 CALM 0 2 0 1 1022.2 1022.1 0.0
18/11:00pm 12.0 9.5 6.7 70 2.5 SSW 9 11 5 6 1022.6 1022.5 0.0
18/10:30pm 12.6 10.7 7.5 71 2.5 SW 7 9 4 5 1022.8 1022.7 0.0
18/10:00pm 12.1 9.2 6.6 69 2.6 SW 11 13 6 7 1023.2 1023.1 0.0
18/09:30pm 14.0 13.2 8.2 68 2.9 S 2 7 1 4 1023.2 1023.1 0.0
18/09:00pm 14.7 12.6 8.4 66 3.2 S 9 11 5 6 1023.0 1022.9 0.0
18/08:30pm 15.3 12.6 8.8 65 3.3 SE 13 17 7 9 1023.0 1022.9 0.0
18/08:00pm 15.5 12.3 8.5 63 3.5 SE 15 17 8 9 1023.2 1023.1 0.0
18/07:30pm 16.0 13.0 9.4 65 3.4 SE 15 19 8 10 1023.4 1023.3 0.0
18/07:00pm 16.7 14.0 10.5 67 3.3 ESE 15 20 8 11 1023.4 1023.3 0.0
18/06:30pm 17.1 13.4 9.5 61 4.0 SE 19 22 10 12 1023.3 1023.2 0.0
18/06:00pm 17.9 14.0 9.5 58 4.4 SE 20 24 11 13 1023.1 1023.0 0.0
18/05:30pm 18.9 14.5 8.8 52 5.2 SE 22 28 12 15 1023.1 1023.0 0.0
18/05:00pm 19.1 14.9 9.6 54 5.0 SE 22 28 12 15 1023.0 1022.9 0.0
18/04:30pm 19.4 15.7 10.1 55 5.0 SE 20 24 11 13 1022.9 1022.8 0.0
18/04:00pm 19.9 16.4 8.6 48 5.9 SE 17 22 9 12 1023.1 1023.0 0.0
18/03:30pm 19.9 15.9 8.9 49 5.8 SSE 20 28 11 15 1023.1 1023.0 0.0
18/03:00pm 20.4 17.2 8.4 46 6.2 SE 15 20 8 11 1023.1 1023.0 0.0
18/02:30pm 20.7 18.5 8.0 44 6.6 E 9 17 5 9 1023.3 1023.2 0.0
18/02:00pm 20.3 18.5 7.3 43 6.6 S 6 15 3 8 1023.6 1023.5 0.0
18/01:30pm 19.9 17.7 6.3 41 6.8 W 7 13 4 7 1024.0 1023.9 0.0
18/01:00pm 20.0 17.1 6.4 41 6.8 SE 11 17 6 9 1024.6 1024.5 0.0
18/12:30pm 20.2 17.6 6.2 40 7.0 SSW 9 19 5 10 1025.0 1024.9 0.0
18/12:00pm 20.0 17.4 6.0 40 6.9 ESE 9 15 5 8 1025.3 1025.2 0.0
18/11:30am 20.0 17.9 6.0 40 6.9 SSE 6 11 3 6 1025.8 1025.7 0.0
18/11:00am 19.9 17.3 5.9 40 6.9 ESE 9 13 5 7 1026.1 1026.0 0.0
18/10:30am 19.4 16.9 6.5 43 6.4 SE 9 15 5 8 1026.4 1026.3 0.0
18/10:00am 18.9 16.8 6.7 45 6.1 S 7 11 4 6 1026.8 1026.7 0.0
18/09:30am 18.4 16.8 8.9 54 4.9 SE 7 11 4 6 1027.0 1026.9 0.0
18/09:00am 17.1 16.3 9.8 62 3.8 SW 4 7 2 4 1027.1 1027.0 0.0
18/08:30am 16.6 15.5 10.0 65 3.5 WSW 6 9 3 5 1027.2 1027.1 0.0
18/08:00am 14.4 13.3 9.8 74 2.4 WSW 6 9 3 5 1026.9 1026.8 0.0
18/07:30am 10.2 8.4 7.3 82 1.4 SSW 6 9 3 5 1026.6 1026.5 0.0
18/07:00am 8.2 5.9 5.0 80 1.4 S 6 7 3 4 1026.4 1026.3 0.0
18/06:30am 7.8 4.9 4.6 80 1.4 SW 9 11 5 6 1026.3 1026.2 0.0
18/06:00am 9.0 6.0 6.1 82 1.3 SSW 11 13 6 7 1026.4 1026.3 0.0
18/05:30am 8.1 5.0 5.4 83 1.2 SW 11 13 6 7 1026.4 1026.3 0.0
18/05:00am 8.0 5.7 4.8 80 1.4 ESE 6 9 3 5 1026.4 1026.3 0.0
18/04:30am 9.7 8.9 6.4 80 1.5 CALM 0 0 0 0 1026.1 1026.0 0.0
18/04:00am 9.7 8.0 5.9 77 1.7 ESE 4 7 2 4 1026.2 1026.1 0.0
18/03:30am 11.1 8.8 7.4 78 1.8 S 9 9 5 5 1026.0 1025.9 0.0
18/03:00am 12.3 10.0 7.6 73 2.3 S 9 13 5 7 1026.1 1026.0 0.0
18/02:30am 12.4 8.6 7.5 72 2.4 SSE 17 19 9 10 1026.2 1026.1 0.0
18/02:00am 12.7 8.9 7.4 70 2.6 SSE 17 19 9 10 1026.5 1026.4 0.0
18/01:30am 13.1 9.2 7.3 68 2.8 SSE 17 19 9 10 1026.7 1026.6 0.0
18/01:00am 13.2 9.6 8.3 72 2.4 SSE 17 19 9 10 1026.8 1026.7 0.0
18/12:30am 13.8 10.7 8.8 72 2.5 SSE 15 17 8 9 1026.9 1026.8 0.0
18/12:00am 13.5 11.3 9.4 76 2.1 SSE 11 15 6 8 1027.0 1026.9 0.0
 
Date/Time
CST
Temp
°C
App
Temp
°C
Dew
Point
°C
Rel
Hum
%
Delta-T
°C
Wind Press
QNH
hPa
Press
MSL
hPa
Rain since
9am
mm
Dir  Spd
km/h
Gust
km/h
Spd
kts
Gust
kts
17/11:30pm 13.6 11.3 9.1 74 2.3 SSE 11 13 6 7 1027.2 1027.1 0.0
17/11:00pm 14.5 12.8 9.7 73 2.5 SSE 9 17 5 9 1027.3 1027.2 0.0
17/10:30pm 15.2 12.2 9.1 67 3.1 SE 15 19 8 10 1027.5 1027.4 0.0
17/10:00pm 14.9 11.9 9.1 68 3.0 ESE 15 19 8 10 1027.6 1027.5 0.0
17/09:30pm 14.9 11.6 7.9 63 3.5 SE 15 17 8 9 1027.5 1027.4 0.0
17/09:00pm 15.5 11.9 6.8 56 4.2 SE 15 22 8 12 1027.5 1027.4 0.0
17/08:30pm 16.2 11.3 6.9 54 4.6 SSE 22 26 12 14 1027.5 1027.4 0.0
17/08:00pm 16.3 12.4 7.3 55 4.5 SE 17 24 9 13 1027.5 1027.4 0.0
17/07:30pm 16.7 13.0 6.2 50 5.1 SE 15 22 8 12 1027.3 1027.2 0.0
17/07:00pm 16.9 13.1 7.5 54 4.7 SSE 17 22 9 12 1027.2 1027.1 0.0
17/06:30pm 17.6 13.5 8.5 55 4.6 SSE 20 26 11 14 1027.1 1027.0 0.0
17/06:00pm 18.4 14.0 7.2 48 5.6 SSE 20 28 11 15 1026.8 1026.7 0.0
17/05:30pm 19.5 14.2 6.9 44 6.3 S 24 32 13 17 1026.5 1026.4 0.0
17/05:00pm 20.5 13.5 4.1 34 7.9 S 30 39 16 21 1026.2 1026.1 0.0
17/04:30pm 20.8 13.8 4.0 33 8.0 S 30 39 16 21 1026.1 1026.0 0.0
17/04:00pm 21.1 14.1 6.2 38 7.5 S 32 43 17 23 1025.9 1025.8 0.0

Other formats

Comma delimited format used in spreadsheet applications
http://www.bom.gov.au/fwo/IDS60801/IDS60801.95666.axf

JavaScript Object Notation format (JSON) in row-major order
http://www.bom.gov.au/fwo/IDS60801/IDS60801.95666.json

Data quality

Most of these data are generated automatically and are frequently updated. Quality checks on data are not normally performed. It is possible for incorrect values to appear. Refer to information at About Latest Weather Observations and please check the disclaimer before using these data.